Portada
METAR-TAF:

METAR-TAF

Aeropuertos :

Aeropuerto Internacional General José Antonio Anzoátegui

Barcelona, Venezuela

latitud: 10-07N, longitud: 064-41W, altitud: 7 m

METAR: falta

Hora: 01:33 (05:33 UTC)

Pronóstico

El informe se hizo hace 13 horas y 33 minutos, a las 16:00 UTC
Pronóstico válido del 17 a las 18 UTC al 18 a las 18 UTC
Viento 10 kt del norte
Visibilidad 10 km o más
Nubes dispersas a una altura de 1600 ft
Evolucionando progresivamente
del 17 a las 18 UTC al 17 a las 22 UTC
Viento 8 kt del noreste
Escasas nubes a una altura de 1600 ft

TAF: SVBC 171600Z 1718/1818 36010KT 9999 SCT016 TX32/19Z TN24/08Z BECMG 1718/1722 05008KT FEW016

Observaciones y pronósticos meteorológicos de más de 4000 aeropuertos (mensajes METAR y TAF).

Los puntos amarillos y rojos representan las estaciones disponibles.

Ponga el ratón en el punto deseado para ver el nombre de la estación.

Haga clic para ver las observaciones y los pronósticos meteorológicos.

Para cambiar el mapa : haga clic en los botones verdes con una cruz de color negro para hacer un zoom, en el botón verde con un guión para alejar o en las flechas verdes para mapas adyacentes.


METAR-TAF: